createdAt,value
2022-10-06T00:02:38.277Z,16.43
2022-10-06T00:07:43.795Z,16.43
2022-10-06T00:12:51.662Z,14.90
2022-10-06T00:17:57.662Z,20.07
2022-10-06T00:23:03.492Z,14.63
2022-10-06T00:28:09.856Z,13.83
2022-10-06T00:33:17.997Z,19.17
2022-10-06T00:38:23.226Z,14.53
2022-10-06T00:43:48.977Z,16.90
2022-10-06T00:49:00.096Z,16.17
2022-10-06T00:54:05.811Z,17.93
2022-10-06T00:59:16.218Z,19.37
2022-10-06T01:04:23.871Z,13.83
2022-10-06T01:09:31.220Z,18.53
2022-10-06T01:14:39.280Z,16.97
2022-10-06T01:20:10.241Z,13.97
2022-10-06T01:25:18.040Z,14.53
2022-10-06T01:30:39.159Z,11.47
2022-10-06T01:35:47.786Z,15.70
2022-10-06T01:40:54.435Z,17.30
2022-10-06T01:46:00.812Z,15.23
2022-10-06T01:51:06.349Z,21.43
2022-10-06T01:56:12.222Z,18.40
2022-10-06T02:01:17.553Z,18.60
2022-10-06T02:06:23.105Z,16.47
2022-10-06T02:11:28.784Z,13.63
2022-10-06T02:16:34.142Z,15.20
2022-10-06T02:21:39.354Z,16.60
2022-10-06T02:26:44.612Z,12.40
2022-10-06T02:31:50.605Z,20.00
2022-10-06T02:36:56.077Z,17.40
2022-10-06T02:42:01.425Z,16.17
2022-10-06T02:47:06.674Z,17.07
2022-10-06T02:52:12.844Z,22.87
2022-10-06T02:57:18.070Z,13.83
2022-10-06T03:02:23.582Z,18.87
2022-10-06T03:07:29.380Z,16.37
2022-10-06T03:12:34.685Z,27.50
2022-10-06T03:17:39.979Z,15.37
2022-10-06T03:22:45.176Z,19.47
2022-10-06T03:27:50.406Z,18.53
2022-10-06T03:32:55.618Z,15.93
2022-10-06T03:38:01.224Z,19.87
2022-10-06T03:43:06.424Z,12.47
2022-10-06T03:48:11.613Z,14.60
2022-10-06T03:53:16.826Z,19.30
2022-10-06T03:58:22.038Z,15.27
2022-10-06T04:03:27.348Z,25.90
2022-10-06T04:08:33.898Z,25.43
2022-10-06T04:13:39.567Z,23.07
2022-10-06T04:18:46.570Z,28.20
2022-10-06T04:23:54.274Z,25.30
2022-10-06T04:29:01.132Z,24.83
2022-10-06T04:34:08.173Z,24.57
2022-10-06T04:39:13.981Z,19.57
2022-10-06T04:44:20.266Z,19.67
2022-10-06T04:49:25.672Z,13.40
2022-10-06T04:54:33.729Z,13.20
2022-10-06T04:59:55.744Z,20.80
2022-10-06T05:05:00.947Z,14.20
2022-10-06T05:10:06.619Z,13.70
2022-10-06T05:15:12.029Z,12.87
2022-10-06T05:20:18.089Z,20.63
2022-10-06T05:25:24.519Z,19.53
2022-10-06T05:30:30.083Z,19.03
2022-10-06T05:35:35.275Z,16.37
2022-10-06T05:40:40.518Z,16.07
2022-10-06T05:45:56.728Z,11.17
2022-10-06T05:51:10.993Z,17.57
2022-10-06T05:56:22.436Z,14.90
2022-10-06T06:01:35.254Z,18.27
2022-10-06T06:06:49.147Z,14.80
2022-10-06T06:11:54.408Z,14.83
2022-10-06T06:16:59.734Z,13.23
2022-10-06T06:22:05.046Z,12.20
2022-10-06T06:27:10.296Z,13.90
2022-10-06T06:32:15.461Z,13.73
2022-10-06T06:37:20.725Z,14.30
2022-10-06T06:42:25.885Z,13.40
2022-10-06T06:47:30.962Z,13.73
2022-10-06T06:52:36.458Z,11.03
2022-10-06T06:57:42.669Z,9.97
2022-10-06T07:02:50.920Z,11.90
2022-10-06T07:07:57.532Z,9.23
2022-10-06T07:13:02.867Z,6.97
2022-10-06T07:18:28.867Z,10.20
2022-10-06T07:23:52.272Z,6.07
2022-10-06T07:28:59.847Z,4.97
2022-10-06T07:34:06.717Z,12.17
2022-10-06T07:39:11.975Z,7.00
2022-10-06T07:44:17.502Z,5.20
2022-10-06T07:49:23.029Z,8.43
2022-10-06T07:54:28.259Z,7.47
2022-10-06T07:59:34.881Z,4.40
2022-10-06T08:04:40.044Z,7.00
2022-10-06T08:09:45.323Z,4.57
2022-10-06T08:14:50.499Z,4.43
2022-10-06T08:19:55.978Z,4.87
2022-10-06T08:25:06.200Z,3.27
2022-10-06T08:30:09.142Z,6.70
2022-10-06T08:35:14.441Z,4.00
2022-10-06T08:40:19.830Z,8.23
2022-10-06T08:45:38.569Z,3.90
2022-10-06T08:50:55.023Z,7.73
2022-10-06T08:56:13.744Z,5.33
2022-10-06T09:01:24.582Z,5.37
2022-10-06T09:06:33.182Z,4.10
2022-10-06T09:11:54.260Z,4.43
2022-10-06T09:17:02.428Z,5.57
2022-10-06T09:22:10.205Z,2.57
2022-10-06T09:27:24.513Z,3.53
2022-10-06T09:32:32.178Z,2.63
2022-10-06T09:37:58.263Z,1.30
2022-10-06T09:43:06.374Z,2.67
2022-10-06T09:48:26.371Z,2.77
2022-10-06T09:53:34.341Z,1.67
2022-10-06T09:58:39.718Z,3.27
2022-10-06T10:04:18.872Z,2.83
2022-10-06T10:09:29.942Z,3.23
2022-10-06T10:14:39.624Z,3.03
2022-10-06T10:19:46.640Z,1.03
2022-10-06T10:25:14.342Z,2.33
2022-10-06T10:30:20.385Z,7.30
2022-10-06T10:35:39.066Z,1.75
2022-10-06T10:41:01.755Z,5.40
2022-10-06T10:46:17.220Z,3.83
2022-10-06T10:51:31.972Z,3.37
2022-10-06T10:56:37.317Z,2.47
2022-10-06T11:02:14.600Z,2.97
2022-10-06T11:07:40.996Z,9.30
2022-10-06T11:13:08.922Z,3.60
2022-10-06T11:18:53.926Z,6.45
2022-10-06T11:24:15.616Z,5.75
2022-10-06T11:29:32.655Z,2.10
2022-10-06T11:34:38.091Z,2.62
2022-10-06T11:39:46.343Z,3.07
2022-10-06T11:44:54.500Z,2.45
2022-10-06T11:50:00.019Z,2.70
2022-10-06T11:55:11.112Z,3.62
2022-10-06T12:00:27.872Z,2.63
2022-10-06T12:10:51.269Z,5.43
2022-10-06T12:21:45.906Z,7.27
2022-10-06T12:27:05.935Z,5.30
2022-10-06T12:32:41.341Z,3.10
2022-10-06T12:37:54.220Z,2.97
2022-10-06T12:43:12.362Z,2.57
2022-10-06T12:48:23.319Z,3.70
2022-10-06T12:53:35.428Z,3.97
2022-10-06T12:58:41.015Z,6.37
2022-10-06T13:03:49.319Z,11.47
2022-10-06T13:09:09.196Z,3.27
2022-10-06T13:14:16.255Z,8.63
2022-10-06T13:19:24.475Z,5.33
2022-10-06T13:24:29.761Z,0.80
2022-10-06T13:29:34.932Z,4.60
2022-10-06T13:34:41.805Z,3.53
2022-10-06T13:39:47.590Z,4.53
2022-10-06T13:44:58.675Z,4.10
2022-10-06T13:50:16.009Z,4.03
2022-10-06T13:55:29.417Z,5.43
2022-10-06T14:01:00.975Z,14.63
2022-10-06T14:06:20.930Z,5.10
2022-10-06T14:11:29.686Z,9.40
2022-10-06T14:16:35.625Z,9.27
2022-10-06T14:21:44.524Z,5.67
2022-10-06T14:26:52.580Z,4.37
2022-10-06T14:31:59.299Z,7.77
2022-10-06T14:37:04.585Z,3.53
2022-10-06T14:42:11.234Z,8.00
2022-10-06T14:47:16.803Z,4.03
2022-10-06T14:52:22.577Z,6.47
2022-10-06T14:57:27.809Z,17.23
2022-10-06T15:02:33.283Z,3.93
2022-10-06T15:07:56.316Z,6.53
2022-10-06T15:13:01.542Z,2.87
2022-10-06T15:18:06.899Z,4.83
2022-10-06T15:23:17.222Z,8.27
2022-10-06T15:28:40.210Z,8.00
2022-10-06T15:33:48.705Z,5.50
2022-10-06T15:38:54.770Z,13.90
2022-10-06T15:44:00.106Z,8.87
2022-10-06T15:49:08.298Z,9.67
2022-10-06T15:54:14.222Z,4.00
2022-10-06T15:59:22.443Z,6.53
2022-10-06T16:04:35.511Z,6.63
2022-10-06T16:09:43.777Z,5.70
2022-10-06T16:14:50.551Z,7.93
2022-10-06T16:20:06.460Z,13.67
2022-10-06T16:25:14.051Z,18.47
2022-10-06T16:30:22.282Z,33.20
2022-10-06T16:35:29.674Z,35.00
2022-10-06T16:40:35.195Z,19.73
2022-10-06T16:45:46.704Z,12.00
2022-10-06T16:50:53.342Z,10.63
2022-10-06T16:55:58.546Z,11.23
2022-10-06T17:01:04.002Z,9.83
2022-10-06T17:06:18.062Z,12.53
2022-10-06T17:11:25.286Z,18.30
2022-10-06T17:16:33.842Z,15.67
2022-10-06T17:21:48.701Z,9.57
2022-10-06T17:26:47.850Z,14.50
2022-10-06T17:31:58.071Z,8.70
2022-10-06T17:37:03.897Z,14.17
2022-10-06T17:42:09.723Z,22.00
2022-10-06T17:47:14.992Z,19.30
2022-10-06T17:52:24.111Z,18.10
2022-10-06T17:57:28.912Z,19.83
2022-10-06T18:02:34.404Z,26.03
2022-10-06T18:07:40.497Z,25.20
2022-10-06T18:12:46.880Z,27.83
2022-10-06T18:17:52.491Z,28.37
2022-10-06T18:22:58.065Z,36.90
2022-10-06T18:28:03.381Z,49.67
2022-10-06T18:38:15.484Z,34.37
2022-10-06T18:43:20.716Z,33.63
2022-10-06T18:48:44.064Z,38.13
2022-10-06T18:53:49.754Z,51.47
2022-10-06T18:58:54.945Z,51.30
2022-10-06T19:04:03.258Z,62.63
2022-10-06T19:09:08.899Z,47.50
2022-10-06T19:14:16.050Z,62.03
2022-10-06T19:19:23.548Z,58.57
2022-10-06T19:24:43.689Z,59.77
2022-10-06T19:29:54.764Z,62.03
2022-10-06T19:35:00.383Z,79.40
2022-10-06T19:40:07.444Z,54.10
2022-10-06T19:45:14.272Z,55.37
2022-10-06T19:50:19.998Z,57.90
2022-10-06T19:55:25.811Z,59.63
2022-10-06T20:00:31.543Z,94.00
2022-10-06T20:05:38.906Z,75.53
2022-10-06T20:10:44.106Z,54.83
2022-10-06T20:15:49.277Z,60.83
2022-10-06T20:21:00.471Z,51.87
2022-10-06T20:26:12.146Z,47.27
2022-10-06T20:31:29.540Z,55.43
2022-10-06T20:36:36.970Z,56.27
2022-10-06T20:41:43.308Z,52.20
2022-10-06T20:46:48.567Z,57.63
2022-10-06T20:51:55.060Z,68.37
2022-10-06T20:57:00.209Z,71.97
2022-10-06T21:02:07.286Z,57.03
2022-10-06T21:07:13.099Z,75.70
2022-10-06T21:12:20.649Z,73.27
2022-10-06T21:17:25.968Z,75.47
2022-10-06T21:22:31.813Z,65.90
2022-10-06T21:27:37.009Z,67.90
2022-10-06T21:32:42.785Z,82.30
2022-10-06T21:37:48.012Z,67.43
2022-10-06T21:42:53.155Z,65.07
2022-10-06T21:47:59.236Z,57.70
2022-10-06T21:53:04.440Z,56.07
2022-10-06T21:58:09.759Z,58.27
2022-10-06T22:03:15.172Z,64.03
2022-10-06T22:08:20.599Z,48.17
2022-10-06T22:13:27.225Z,42.27
2022-10-06T22:18:36.299Z,46.33
2022-10-06T22:23:43.594Z,30.33
2022-10-06T22:28:50.717Z,38.37
2022-10-06T22:34:01.844Z,39.60
2022-10-06T22:39:07.414Z,35.03
2022-10-06T22:44:13.609Z,45.03
2022-10-06T22:49:19.846Z,39.77
2022-10-06T22:54:26.735Z,48.53
2022-10-06T22:59:31.844Z,46.17
2022-10-06T23:04:37.043Z,46.67
2022-10-06T23:09:42.329Z,38.93
2022-10-06T23:14:48.062Z,35.47
2022-10-06T23:19:53.236Z,36.20
2022-10-06T23:24:58.539Z,34.43
2022-10-06T23:30:05.210Z,41.73
2022-10-06T23:35:11.726Z,36.73
2022-10-06T23:40:17.038Z,38.77
2022-10-06T23:45:22.677Z,44.53
2022-10-06T23:50:28.047Z,40.80
2022-10-06T23:55:33.292Z,38.33
